createdAt,value
2017-06-09T00:01:42.967Z,3.63
2017-06-09T00:04:09.465Z,2.80
2017-06-09T00:06:36.003Z,2.70
2017-06-09T00:09:03.302Z,3.30
2017-06-09T00:11:31.845Z,3.23
2017-06-09T00:14:00.174Z,2.70
2017-06-09T00:16:28.398Z,2.77
2017-06-09T00:18:55.291Z,4.07
2017-06-09T00:21:22.267Z,3.10
2017-06-09T00:23:49.214Z,2.87
2017-06-09T00:26:15.730Z,2.70
2017-06-09T00:28:43.959Z,2.73
2017-06-09T00:31:10.470Z,3.20
2017-06-09T00:33:38.086Z,3.20
2017-06-09T00:36:04.971Z,2.93
2017-06-09T00:38:31.501Z,2.63
2017-06-09T00:40:58.250Z,3.07
2017-06-09T00:43:25.477Z,3.00
2017-06-09T00:45:53.906Z,3.10
2017-06-09T00:48:20.410Z,3.30
2017-06-09T00:50:55.593Z,2.97
2017-06-09T00:53:22.465Z,2.97
2017-06-09T00:55:50.762Z,3.73
2017-06-09T00:58:19.029Z,2.87
2017-06-09T01:00:47.161Z,3.17
2017-06-09T01:03:13.923Z,2.80
2017-06-09T01:05:40.449Z,2.90
2017-06-09T01:08:08.167Z,3.00
2017-06-09T01:10:36.441Z,3.10
2017-06-09T01:13:04.700Z,2.77
2017-06-09T01:15:31.182Z,2.80
2017-06-09T01:17:57.716Z,3.17
2017-06-09T01:20:24.622Z,2.80
2017-06-09T01:22:51.139Z,3.10
2017-06-09T01:25:17.669Z,2.57
2017-06-09T01:27:44.161Z,2.70
2017-06-09T01:30:12.361Z,3.20
2017-06-09T01:32:39.255Z,3.00
2017-06-09T01:35:05.813Z,2.80
2017-06-09T01:37:32.714Z,2.70
2017-06-09T01:39:59.250Z,2.57
2017-06-09T01:42:26.090Z,2.23
2017-06-09T01:44:52.638Z,2.33
2017-06-09T01:47:20.924Z,2.43
2017-06-09T01:49:48.923Z,2.73
2017-06-09T01:52:16.182Z,2.93
2017-06-09T01:54:44.278Z,2.13
2017-06-09T01:57:10.835Z,2.00
2017-06-09T01:59:38.070Z,2.10
2017-06-09T02:02:06.321Z,2.43
2017-06-09T02:04:32.825Z,1.83
2017-06-09T02:07:00.113Z,2.10
2017-06-09T02:09:26.668Z,2.47
2017-06-09T02:11:53.617Z,2.43
2017-06-09T02:14:21.589Z,1.77
2017-06-09T02:16:49.836Z,2.50
2017-06-09T02:19:17.855Z,2.03
2017-06-09T02:21:45.469Z,2.50
2017-06-09T02:24:12.332Z,2.37
2017-06-09T02:26:39.155Z,2.13
2017-06-09T02:29:06.334Z,2.47
2017-06-09T02:31:32.872Z,2.40
2017-06-09T02:34:01.126Z,2.07
2017-06-09T02:36:27.634Z,2.40
2017-06-09T02:38:54.186Z,2.57
2017-06-09T02:41:21.342Z,2.43
2017-06-09T02:43:49.599Z,2.40
2017-06-09T02:46:16.466Z,2.57
2017-06-09T02:48:44.799Z,2.10
2017-06-09T02:51:12.817Z,2.10
2017-06-09T02:53:39.309Z,2.80
2017-06-09T02:56:07.579Z,2.60
2017-06-09T02:58:34.089Z,2.30
2017-06-09T03:01:01.522Z,2.20
2017-06-09T03:03:29.255Z,2.43
2017-06-09T03:05:57.719Z,2.40
2017-06-09T03:08:24.337Z,2.50
2017-06-09T03:10:51.271Z,2.60
2017-06-09T03:13:18.174Z,2.43
2017-06-09T03:15:44.675Z,2.70
2017-06-09T03:18:11.337Z,1.97
2017-06-09T03:20:39.805Z,2.43
2017-06-09T03:23:08.113Z,2.37
2017-06-09T03:25:35.088Z,2.87
2017-06-09T03:28:02.090Z,2.80
2017-06-09T03:30:29.306Z,2.87
2017-06-09T03:33:01.922Z,2.17
2017-06-09T03:35:30.190Z,2.40
2017-06-09T03:37:56.833Z,2.40
2017-06-09T03:40:24.107Z,2.90
2017-06-09T03:42:50.622Z,2.43
2017-06-09T03:45:17.143Z,2.50
2017-06-09T03:47:44.033Z,2.80
2017-06-09T03:50:12.334Z,2.80
2017-06-09T03:52:39.602Z,2.00
2017-06-09T03:55:06.290Z,3.00
2017-06-09T03:57:33.141Z,2.83
2017-06-09T04:00:00.594Z,2.63
2017-06-09T04:02:27.630Z,2.10
2017-06-09T04:04:54.889Z,2.50
2017-06-09T04:07:22.888Z,2.20
2017-06-09T04:09:49.927Z,3.07
2017-06-09T04:12:17.240Z,2.90
2017-06-09T04:14:45.330Z,3.20
2017-06-09T04:17:12.093Z,2.23
2017-06-09T04:19:38.490Z,2.40
2017-06-09T04:22:06.585Z,2.27
2017-06-09T04:24:33.962Z,2.20
2017-06-09T04:27:00.251Z,2.47
2017-06-09T04:29:26.925Z,2.23
2017-06-09T04:32:02.007Z,2.70
2017-06-09T04:34:30.102Z,2.67
2017-06-09T04:36:58.121Z,2.33
2017-06-09T04:39:24.406Z,3.30
2017-06-09T04:41:52.487Z,2.90
2017-06-09T04:44:19.290Z,2.77
2017-06-09T04:46:45.975Z,2.47
2017-06-09T04:49:12.317Z,2.43
2017-06-09T04:51:40.306Z,2.10
2017-06-09T04:54:06.596Z,2.53
2017-06-09T04:56:33.608Z,2.67
2017-06-09T04:59:01.027Z,2.60
2017-06-09T05:01:28.413Z,1.80
2017-06-09T05:03:55.506Z,2.73
2017-06-09T05:06:22.949Z,2.27
2017-06-09T05:08:51.111Z,2.20
2017-06-09T05:11:17.485Z,2.17
2017-06-09T05:13:44.172Z,2.57
2017-06-09T05:16:10.859Z,2.30
2017-06-09T05:18:38.026Z,2.50
2017-06-09T05:21:10.369Z,2.53
2017-06-09T05:23:44.420Z,2.40
2017-06-09T05:26:12.425Z,2.80
2017-06-09T05:28:40.500Z,2.57
2017-06-09T05:31:08.536Z,2.30
2017-06-09T05:33:35.250Z,2.57
2017-06-09T05:36:03.301Z,2.30
2017-06-09T05:38:30.735Z,2.37
2017-06-09T05:40:57.378Z,2.63
2017-06-09T05:43:23.673Z,2.30
2017-06-09T05:45:50.006Z,3.10
2017-06-09T05:48:16.411Z,2.40
2017-06-09T05:50:44.441Z,2.70
2017-06-09T05:53:12.210Z,2.73
2017-06-09T05:55:38.745Z,2.13
2017-06-09T05:58:05.753Z,2.30
2017-06-09T06:00:32.041Z,2.30
2017-06-09T06:02:59.472Z,2.20
2017-06-09T06:05:26.241Z,2.43
2017-06-09T06:07:54.257Z,2.10
2017-06-09T06:10:20.944Z,1.73
2017-06-09T06:12:47.242Z,2.30
2017-06-09T06:15:13.554Z,1.97
2017-06-09T06:17:40.631Z,2.00
2017-06-09T06:20:08.649Z,2.50
2017-06-09T06:22:35.366Z,2.33
2017-06-09T06:25:03.353Z,1.97
2017-06-09T06:27:30.443Z,2.73
2017-06-09T06:29:57.208Z,2.47
2017-06-09T06:32:24.226Z,2.50
2017-06-09T06:34:50.874Z,2.40
2017-06-09T06:37:18.314Z,2.60
2017-06-09T06:39:46.321Z,3.30
2017-06-09T06:42:14.318Z,2.57
2017-06-09T06:44:41.338Z,2.50
2017-06-09T06:47:07.693Z,2.73
2017-06-09T06:49:35.711Z,2.70
2017-06-09T06:52:02.370Z,2.37
2017-06-09T06:54:28.709Z,2.47
2017-06-09T06:56:56.705Z,2.57
2017-06-09T06:59:23.028Z,2.30
2017-06-09T07:01:50.474Z,2.80
2017-06-09T07:04:17.222Z,3.00
2017-06-09T07:06:43.496Z,2.80
2017-06-09T07:09:09.813Z,2.33
2017-06-09T07:11:36.095Z,2.10
2017-06-09T07:14:04.116Z,2.27
2017-06-09T07:16:31.907Z,2.37
2017-06-09T07:18:58.582Z,2.33
2017-06-09T07:21:24.970Z,3.10
2017-06-09T07:23:51.249Z,2.93
2017-06-09T07:26:17.582Z,2.27
2017-06-09T07:28:44.249Z,2.27
2017-06-09T07:31:12.270Z,2.40
2017-06-09T07:33:38.934Z,2.43
2017-06-09T07:36:05.218Z,2.50
2017-06-09T07:38:32.622Z,2.83
2017-06-09T07:40:59.111Z,3.00
2017-06-09T07:43:25.778Z,2.40
2017-06-09T07:45:52.084Z,1.87
2017-06-09T07:48:20.131Z,1.90
2017-06-09T07:50:48.165Z,2.77
2017-06-09T07:53:14.508Z,2.70
2017-06-09T07:55:40.825Z,3.00
2017-06-09T07:58:07.134Z,2.40
2017-06-09T08:00:34.164Z,2.13
2017-06-09T08:03:00.810Z,2.67
2017-06-09T08:05:28.821Z,2.53
2017-06-09T08:07:55.464Z,2.30
2017-06-09T08:10:21.781Z,3.50
2017-06-09T08:12:49.801Z,4.13
2017-06-09T08:15:16.476Z,3.40
2017-06-09T08:17:47.626Z,3.40
2017-06-09T08:20:15.670Z,3.23
2017-06-09T08:22:43.085Z,3.07
2017-06-09T08:25:10.523Z,3.17
2017-06-09T08:27:37.999Z,2.70
2017-06-09T08:30:08.919Z,2.80
2017-06-09T08:32:35.194Z,2.57
2017-06-09T08:35:03.197Z,3.00
2017-06-09T08:37:30.243Z,3.80
2017-06-09T08:39:56.529Z,3.40
2017-06-09T08:42:23.953Z,3.77
2017-06-09T08:44:50.986Z,3.27
2017-06-09T08:47:17.317Z,2.70
2017-06-09T08:49:44.393Z,3.10
2017-06-09T08:52:12.377Z,3.23
2017-06-09T08:54:38.662Z,3.50
2017-06-09T08:57:08.693Z,3.07
2017-06-09T08:59:35.014Z,4.20
2017-06-09T09:02:01.697Z,4.70
2017-06-09T09:04:28.353Z,3.93
2017-06-09T09:06:56.373Z,3.30
2017-06-09T09:09:23.034Z,3.80
2017-06-09T09:11:49.341Z,3.47
2017-06-09T09:14:16.866Z,3.00
2017-06-09T09:16:43.173Z,2.00
2017-06-09T09:19:10.226Z,2.30
2017-06-09T09:21:36.862Z,1.90
2017-06-09T09:24:04.853Z,1.90
2017-06-09T09:26:31.945Z,2.10
2017-06-09T09:29:01.981Z,2.57
2017-06-09T09:31:28.634Z,2.50
2017-06-09T09:33:55.288Z,1.70
2017-06-09T09:36:21.581Z,1.90
2017-06-09T09:38:49.566Z,2.37
2017-06-09T09:41:16.941Z,1.87
2017-06-09T09:43:43.599Z,2.27
2017-06-09T09:46:09.876Z,3.13
2017-06-09T09:48:37.706Z,2.27
2017-06-09T09:51:03.988Z,2.40
2017-06-09T09:53:30.257Z,2.60
2017-06-09T09:55:58.266Z,2.07
2017-06-09T09:58:26.073Z,2.77
2017-06-09T10:00:54.069Z,2.77
2017-06-09T10:03:20.768Z,2.80
2017-06-09T10:05:48.790Z,3.40
2017-06-09T10:08:16.585Z,2.10
2017-06-09T10:10:44.576Z,2.47
2017-06-09T10:13:11.290Z,3.07
2017-06-09T10:15:39.330Z,2.70
2017-06-09T10:18:06.033Z,2.93
2017-06-09T10:20:32.337Z,2.40
2017-06-09T10:23:00.169Z,2.43
2017-06-09T10:25:27.238Z,2.70
2017-06-09T10:27:55.236Z,3.40
2017-06-09T10:30:21.522Z,3.33
2017-06-09T10:32:47.802Z,4.00
2017-06-09T10:35:14.082Z,4.57
2017-06-09T10:37:40.366Z,3.77
2017-06-09T10:40:06.986Z,3.20
2017-06-09T10:42:33.637Z,4.30
2017-06-09T10:45:01.634Z,3.67
2017-06-09T10:47:28.016Z,4.40
2017-06-09T10:49:54.319Z,4.20
2017-06-09T10:52:20.631Z,3.50
2017-06-09T10:54:47.278Z,3.20
2017-06-09T10:57:13.566Z,2.57
2017-06-09T10:59:39.901Z,2.30
2017-06-09T11:02:06.205Z,2.13
2017-06-09T11:04:34.293Z,2.10
2017-06-09T11:07:01.307Z,2.13
2017-06-09T11:09:28.362Z,2.17
2017-06-09T11:11:55.132Z,2.57
2017-06-09T11:14:22.276Z,2.33
2017-06-09T11:16:48.606Z,2.37
2017-06-09T11:19:16.631Z,1.50
2017-06-09T11:21:44.454Z,1.93
2017-06-09T11:24:11.247Z,3.03
2017-06-09T11:26:37.670Z,2.47
2017-06-09T11:29:04.778Z,2.53
2017-06-09T11:31:31.093Z,2.63
2017-06-09T11:33:57.825Z,2.60
2017-06-09T11:36:25.953Z,2.50
2017-06-09T11:38:53.806Z,3.40
2017-06-09T11:41:21.590Z,3.40
2017-06-09T11:43:49.833Z,3.03
2017-06-09T11:46:17.501Z,3.07
2017-06-09T11:48:44.453Z,2.60
2017-06-09T11:51:12.691Z,2.70
2017-06-09T11:53:39.363Z,3.00
2017-06-09T11:56:05.788Z,3.40
2017-06-09T11:58:33.043Z,2.90
2017-06-09T12:00:59.996Z,3.00
2017-06-09T12:03:26.542Z,3.20
2017-06-09T12:05:53.121Z,3.60
2017-06-09T12:08:21.385Z,4.20
2017-06-09T12:10:47.950Z,4.50
2017-06-09T12:13:14.846Z,4.30
2017-06-09T12:15:41.483Z,4.00
2017-06-09T12:18:08.071Z,3.70
2017-06-09T12:20:35.381Z,3.70
2017-06-09T12:23:02.277Z,3.70
2017-06-09T12:25:30.515Z,4.07
2017-06-09T12:27:56.958Z,3.37
2017-06-09T12:30:23.839Z,3.70
2017-06-09T12:32:52.098Z,4.30
2017-06-09T12:35:18.724Z,4.23
2017-06-09T12:37:46.372Z,4.50
2017-06-09T12:40:16.785Z,3.80
2017-06-09T12:42:43.280Z,4.07
2017-06-09T12:45:10.807Z,5.50
2017-06-09T12:47:39.089Z,4.50
2017-06-09T12:50:06.974Z,4.30
2017-06-09T12:52:38.304Z,5.07
2017-06-09T12:55:06.041Z,3.67
2017-06-09T12:57:33.313Z,3.13
2017-06-09T13:00:00.207Z,3.27
2017-06-09T13:02:27.110Z,4.37
2017-06-09T13:04:53.531Z,3.83
2017-06-09T13:07:21.791Z,3.47
2017-06-09T13:09:50.086Z,3.07
2017-06-09T13:12:17.353Z,4.83
2017-06-09T13:14:43.930Z,4.23
2017-06-09T13:17:13.353Z,4.37
2017-06-09T13:19:40.023Z,4.40
2017-06-09T13:22:06.660Z,4.07
2017-06-09T13:24:33.196Z,5.00
2017-06-09T13:26:59.799Z,4.87
2017-06-09T13:29:26.711Z,5.53
2017-06-09T13:31:53.229Z,3.73
2017-06-09T13:34:20.490Z,4.20
2017-06-09T13:36:48.132Z,4.73
2017-06-09T13:39:14.608Z,5.57
2017-06-09T13:41:42.811Z,4.83
2017-06-09T13:44:10.071Z,5.10
2017-06-09T13:46:36.564Z,6.00
2017-06-09T13:49:03.822Z,5.93
2017-06-09T13:51:30.366Z,5.20
2017-06-09T13:53:56.886Z,5.53
2017-06-09T13:56:25.161Z,4.37
2017-06-09T13:58:51.707Z,4.63
2017-06-09T14:01:18.861Z,4.77
2017-06-09T14:03:45.809Z,4.70
2017-06-09T14:06:12.358Z,5.23
2017-06-09T14:08:38.881Z,6.30
2017-06-09T14:11:05.671Z,6.20
2017-06-09T14:13:33.930Z,6.40
2017-06-09T14:16:06.409Z,5.63
2017-06-09T14:18:33.799Z,7.00
2017-06-09T14:21:01.113Z,7.63
2017-06-09T14:23:27.619Z,6.10
2017-06-09T14:25:54.220Z,6.47
2017-06-09T14:28:21.242Z,6.60
2017-06-09T14:30:47.790Z,6.07
2017-06-09T14:33:18.447Z,5.33
2017-06-09T14:35:45.397Z,6.00
2017-06-09T14:38:12.654Z,5.77
2017-06-09T14:40:40.001Z,6.63
2017-06-09T14:43:08.302Z,6.80
2017-06-09T14:45:36.562Z,6.87
2017-06-09T14:48:03.841Z,7.60
2017-06-09T14:50:30.737Z,7.90
2017-06-09T14:52:57.965Z,7.33
2017-06-09T14:55:26.393Z,7.87
2017-06-09T14:57:54.530Z,6.97
2017-06-09T15:00:21.114Z,7.40
2017-06-09T15:02:47.901Z,7.13
2017-06-09T15:05:15.174Z,7.40
2017-06-09T15:07:41.666Z,7.50
2017-06-09T15:10:08.262Z,6.57
2017-06-09T15:12:34.789Z,7.17
2017-06-09T15:15:03.074Z,7.13
2017-06-09T15:17:31.378Z,8.37
2017-06-09T15:19:58.668Z,7.97
2017-06-09T15:22:25.871Z,8.77
2017-06-09T15:24:52.349Z,8.90
2017-06-09T15:27:19.719Z,7.93
2017-06-09T15:29:47.070Z,6.00
2017-06-09T15:32:15.282Z,5.73
2017-06-09T15:34:41.776Z,6.53
2017-06-09T15:37:08.297Z,5.23
2017-06-09T15:39:35.583Z,3.40
2017-06-09T15:42:02.464Z,3.60
2017-06-09T15:44:28.990Z,3.60
2017-06-09T15:46:57.282Z,2.97
2017-06-09T15:49:25.575Z,2.47
2017-06-09T15:51:52.140Z,2.40
2017-06-09T15:54:18.682Z,2.57
2017-06-09T15:56:45.907Z,2.23
2017-06-09T15:59:13.841Z,2.30
2017-06-09T16:01:40.364Z,2.30
2017-06-09T16:04:06.913Z,2.60
2017-06-09T16:06:34.185Z,2.00
2017-06-09T16:09:02.236Z,2.60
2017-06-09T16:11:28.739Z,2.60
2017-06-09T16:13:57.017Z,2.87
2017-06-09T16:16:25.258Z,2.70
2017-06-09T16:18:53.508Z,2.50
2017-06-09T16:21:20.765Z,2.97
2017-06-09T16:23:47.350Z,3.40
2017-06-09T16:26:13.907Z,3.10
2017-06-09T16:28:40.775Z,2.53
2017-06-09T16:31:08.374Z,2.17
2017-06-09T16:33:35.285Z,2.20
2017-06-09T16:36:02.217Z,3.20
2017-06-09T16:38:29.647Z,3.30
2017-06-09T16:40:57.906Z,2.70
2017-06-09T16:43:25.559Z,7.30
2017-06-09T16:45:51.954Z,2.60
2017-06-09T16:48:18.534Z,2.13
2017-06-09T16:50:46.822Z,1.77
2017-06-09T16:53:14.479Z,4.33
2017-06-09T16:55:41.464Z,3.27
2017-06-09T16:58:08.794Z,2.90
2017-06-09T17:00:36.142Z,2.50
2017-06-09T17:03:04.468Z,1.97
2017-06-09T17:05:32.729Z,2.00
2017-06-09T17:08:00.341Z,2.33
2017-06-09T17:10:27.578Z,1.83
2017-06-09T17:12:55.177Z,1.90
2017-06-09T17:15:23.541Z,1.90
2017-06-09T17:17:51.823Z,2.20
2017-06-09T17:20:20.164Z,2.10
2017-06-09T17:22:48.213Z,2.40
2017-06-09T17:25:17.037Z,2.83
2017-06-09T17:27:45.299Z,2.70
2017-06-09T17:30:11.866Z,2.23
2017-06-09T17:32:38.875Z,2.00
2017-06-09T17:35:06.523Z,2.60
2017-06-09T17:37:33.170Z,2.30
2017-06-09T17:40:01.476Z,2.83
2017-06-09T17:42:29.134Z,2.23
2017-06-09T17:44:56.797Z,2.50
2017-06-09T17:47:25.007Z,2.30
2017-06-09T17:49:53.045Z,2.30
2017-06-09T17:52:20.491Z,3.27
2017-06-09T17:54:48.678Z,3.00
2017-06-09T17:57:15.381Z,3.60
2017-06-09T17:59:42.475Z,3.30
2017-06-09T18:02:08.814Z,2.07
2017-06-09T18:04:35.130Z,1.80
2017-06-09T18:07:01.560Z,2.27
2017-06-09T18:09:27.942Z,2.43
2017-06-09T18:11:54.937Z,2.80
2017-06-09T18:14:22.965Z,2.80
2017-06-09T18:16:49.269Z,2.10
2017-06-09T18:19:15.579Z,2.27
2017-06-09T18:21:42.245Z,2.03
2017-06-09T18:24:10.278Z,3.17
2017-06-09T18:26:38.323Z,2.30
2017-06-09T18:29:04.990Z,2.67
2017-06-09T18:31:31.629Z,2.97
2017-06-09T18:33:58.705Z,2.33
2017-06-09T18:36:25.957Z,2.40
2017-06-09T18:38:53.986Z,4.00
2017-06-09T18:41:21.179Z,3.00
2017-06-09T18:43:47.849Z,2.70
2017-06-09T18:46:14.562Z,2.70
2017-06-09T18:48:40.886Z,2.03
2017-06-09T18:51:07.598Z,2.50
2017-06-09T18:53:33.934Z,2.67
2017-06-09T18:56:02.913Z,2.60
2017-06-09T18:58:30.982Z,2.63
2017-06-09T19:00:58.810Z,2.87
2017-06-09T19:03:25.509Z,2.40
2017-06-09T19:05:53.517Z,2.90
2017-06-09T19:08:20.921Z,2.63
2017-06-09T19:10:49.306Z,2.80
2017-06-09T19:13:18.398Z,3.00
2017-06-09T19:15:46.351Z,1.90
2017-06-09T19:18:14.287Z,2.33
2017-06-09T19:20:40.838Z,2.47
2017-06-09T19:23:07.608Z,3.40
2017-06-09T19:25:35.975Z,2.27
2017-06-09T19:28:03.717Z,4.00
2017-06-09T19:30:32.401Z,4.90
2017-06-09T19:33:00.645Z,2.47
2017-06-09T19:35:28.674Z,3.67
2017-06-09T19:37:55.024Z,2.63
2017-06-09T19:40:23.074Z,2.63
2017-06-09T19:42:51.441Z,2.30
2017-06-09T19:45:19.176Z,2.83
2017-06-09T19:47:47.360Z,2.50
2017-06-09T19:50:15.171Z,2.70
2017-06-09T19:52:43.206Z,3.43
2017-06-09T19:55:11.255Z,3.10
2017-06-09T19:57:38.115Z,3.50
2017-06-09T20:00:06.308Z,3.73
2017-06-09T20:02:34.439Z,3.30
2017-06-09T20:05:02.459Z,2.67
2017-06-09T20:07:29.517Z,4.17
2017-06-09T20:09:57.162Z,3.97
2017-06-09T20:12:25.182Z,3.20
2017-06-09T20:14:53.238Z,4.70
2017-06-09T20:17:20.866Z,5.77
2017-06-09T20:19:47.525Z,13.83
2017-06-09T20:22:15.537Z,10.80
2017-06-09T20:24:43.760Z,12.43
2017-06-09T20:27:12.422Z,10.73
2017-06-09T20:29:39.575Z,7.40
2017-06-09T20:32:07.886Z,9.77
2017-06-09T20:34:34.769Z,7.00
2017-06-09T20:37:02.648Z,7.90
2017-06-09T20:39:29.887Z,7.20
2017-06-09T20:41:57.254Z,5.90
2017-06-09T20:44:25.317Z,5.17
2017-06-09T20:46:53.514Z,6.40
2017-06-09T20:49:20.668Z,13.37
2017-06-09T20:51:47.885Z,17.73
2017-06-09T20:54:16.370Z,14.50
2017-06-09T20:56:44.755Z,10.17
2017-06-09T20:59:13.718Z,10.00
2017-06-09T21:01:41.923Z,20.67
2017-06-09T21:04:09.493Z,22.30
2017-06-09T21:06:37.016Z,8.60
2017-06-09T21:09:05.077Z,5.43
2017-06-09T21:11:33.171Z,11.33
2017-06-09T21:14:00.850Z,8.47
2017-06-09T21:16:27.302Z,9.93
2017-06-09T21:18:55.474Z,10.30
2017-06-09T21:21:23.579Z,7.70
2017-06-09T21:23:51.790Z,6.60
2017-06-09T21:26:21.418Z,6.63
2017-06-09T21:28:49.729Z,7.63
2017-06-09T21:31:16.123Z,6.97
2017-06-09T21:33:42.857Z,8.40
2017-06-09T21:36:10.057Z,6.03
2017-06-09T21:38:36.338Z,5.47
2017-06-09T21:41:05.133Z,6.13
2017-06-09T21:43:31.679Z,5.50
2017-06-09T21:45:58.141Z,5.90
2017-06-09T21:48:26.302Z,6.13
2017-06-09T21:50:55.187Z,5.67
2017-06-09T21:53:23.447Z,5.40
2017-06-09T21:55:51.710Z,7.00
2017-06-09T21:58:20.253Z,6.50
2017-06-09T22:00:48.510Z,6.90
2017-06-09T22:03:16.795Z,5.60
2017-06-09T22:05:45.447Z,6.47
2017-06-09T22:08:13.462Z,6.13
2017-06-09T22:10:39.865Z,5.90
2017-06-09T22:13:07.694Z,5.97
2017-06-09T22:15:36.101Z,5.90
2017-06-09T22:18:03.210Z,6.07
2017-06-09T22:20:31.472Z,5.67
2017-06-09T22:22:59.714Z,6.10
2017-06-09T22:25:27.746Z,6.47
2017-06-09T22:27:54.118Z,5.50
2017-06-09T22:30:22.165Z,6.07
2017-06-09T22:32:50.166Z,5.60
2017-06-09T22:35:17.953Z,6.57
2017-06-09T22:37:45.439Z,4.93
2017-06-09T22:40:12.201Z,5.20
2017-06-09T22:42:39.773Z,5.93
2017-06-09T22:45:07.315Z,5.50
2017-06-09T22:47:34.056Z,5.70
2017-06-09T22:50:02.260Z,5.70
2017-06-09T22:52:30.483Z,5.87
2017-06-09T22:54:58.440Z,6.43
2017-06-09T22:57:27.218Z,6.50
2017-06-09T22:59:55.450Z,6.30
2017-06-09T23:02:22.854Z,5.40
2017-06-09T23:04:53.525Z,5.50
2017-06-09T23:07:20.484Z,6.43
2017-06-09T23:09:47.310Z,4.77
2017-06-09T23:12:13.634Z,5.83
2017-06-09T23:14:39.986Z,5.43
2017-06-09T23:17:07.023Z,5.53
2017-06-09T23:19:35.021Z,5.60
2017-06-09T23:22:03.070Z,6.17
2017-06-09T23:24:46.065Z,6.77
2017-06-09T23:27:13.850Z,5.60
2017-06-09T23:29:40.431Z,6.50
2017-06-09T23:32:06.809Z,6.50
2017-06-09T23:34:33.518Z,7.20
2017-06-09T23:37:01.554Z,6.77
2017-06-09T23:39:27.843Z,5.90
2017-06-09T23:41:56.311Z,6.60
2017-06-09T23:44:24.401Z,5.87
2017-06-09T23:46:51.430Z,7.17
2017-06-09T23:49:17.729Z,7.07
2017-06-09T23:51:44.997Z,7.13
2017-06-09T23:54:12.993Z,6.90
2017-06-09T23:56:46.593Z,7.00
2017-06-09T23:59:13.283Z,6.00
